Terminal Aerodrome Forecast
Issued by NWS Sioux Falls, SD

Home | Current Version | Previous Version | Graphics & Text | Print | Product List | Glossary Off
Versions: 1 2 3 4 5 6 7 8 9 10 11 12 13 14 15 16 17

000
FTUS43 KFSD 301728
TAFHON
TAF
KHON 301728Z 3018/3118 17015G22KT P6SM FEW200 SCT250
     FM302300 16013KT P6SM SCT150 BKN200
     FM310100 17010KT P6SM SHRA VCTS BKN090CB
      TEMPO 3101/3103 VRB25G40KT 5SM TSRA BKN050CB
     FM310300 19007KT P6SM SHRA OVC090
     FM310500 26009KT P6SM BKN090
     FM310800 29009KT P6SM BKN200
     FM311300 30013KT P6SM SCT250=

USA.gov is the U.S. government's official web portal to all federal, state and local government web resources and services.